Time;durP1;ratioP1;P1;durP2;ratioP2;P2;SDS_P1;SDS_P2;PMS_P1;PMS_P2;Temp;Humidity;BMP_temperature;BMP_pressure;BME280_temperature;BME280_humidity;BME280_pressure;Samples;Min_cycle;Max_cycle;Signal;HPM_P1;HPM_P2
2023/09/09 00:01:25;;;;;;;3.85;2.30;;;;;;;20.45;73.37;100092.28;4976145;28;20480;-94
2023/09/09 00:03:50;;;;;;;3.22;2.25;;;;;;;20.30;72.60;100056.41;4975855;28;20057;-93
2023/09/09 00:06:16;;;;;;;5.03;2.85;;;;;;;20.41;72.71;100088.88;4958620;28;20128;-92
2023/09/09 00:08:42;;;;;;;1.15;1.05;;;;;;;20.27;72.90;100068.13;4955657;28;20050;-92
2023/09/09 00:11:09;;;;;;;7.55;2.45;;;;;;;20.28;72.21;100058.28;4956875;28;20031;-93
2023/09/09 00:13:35;;;;;;;4.70;2.00;;;;;;;20.32;72.70;100081.31;4975186;28;20105;-94
2023/09/09 00:16:01;;;;;;;3.85;2.42;;;;;;;20.45;72.44;100085.13;4957578;28;20505;-94
2023/09/09 00:18:26;;;;;;;2.20;1.23;;;;;;;20.50;71.96;100088.44;4967329;28;20034;-94
2023/09/09 00:20:52;;;;;;;3.92;1.52;;;;;;;20.40;72.67;100089.81;4975557;28;20519;-95
2023/09/09 00:23:19;;;;;;;2.67;1.75;;;;;;;20.21;72.88;100073.78;4974164;28;20042;-95
2023/09/09 00:25:44;;;;;;;1.92;1.58;;;;;;;20.27;72.79;100073.50;5008056;28;20495;-95
2023/09/09 00:28:11;;;;;;;1.58;0.88;;;;;;;20.02;73.60;100055.94;4972482;28;20105;-95
2023/09/09 00:30:37;;;;;;;1.77;1.10;;;;;;;19.96;73.67;100036.66;4975416;28;20045;-94
2023/09/09 00:33:03;;;;;;;1.35;1.25;;;;;;;20.05;73.03;100052.25;4992998;28;20030;-94
2023/09/09 00:35:34;;;;;;;4.43;2.42;;;;;;;20.20;72.77;100072.94;4969731;28;20561;-95
2023/09/09 00:38:00;;;;;;;1.15;1.10;;;;;;;20.31;72.58;100083.13;4973840;28;20524;-94
2023/09/09 00:40:26;;;;;;;3.42;1.40;;;;;;;20.33;72.29;100077.69;4967521;28;20068;-94
2023/09/09 00:42:52;;;;;;;1.80;1.25;;;;;;;20.22;72.05;100072.88;4955869;28;20097;-91
2023/09/09 00:45:17;;;;;;;2.85;1.85;;;;;;;20.38;71.74;100086.34;4955458;28;20105;-95
2023/09/09 00:47:44;;;;;;;3.08;2.42;;;;;;;20.28;72.03;100060.97;4957777;28;20041;-94
2023/09/09 00:50:11;;;;;;;2.15;1.70;;;;;;;20.36;71.87;100088.25;4965183;28;20037;-94
2023/09/09 00:52:39;;;;;;;3.35;1.60;;;;;;;20.30;71.58;100067.13;4991154;28;20132;-94
2023/09/09 00:55:06;;;;;;;2.20;1.55;;;;;;;20.14;71.86;100042.88;4975873;28;20027;-96
2023/09/09 00:57:52;;;;;;;1.50;1.33;;;;;;;20.32;71.80;100076.81;4977579;28;20041;-96
2023/09/09 01:00:24;;;;;;;3.50;2.10;;;;;;;20.08;72.40;100056.56;4975578;28;20030;-96
2023/09/09 01:02:49;;;;;;;3.03;1.60;;;;;;;20.10;72.62;100066.28;4957707;28;20089;-95
2023/09/09 01:05:15;;;;;;;1.75;1.58;;;;;;;20.02;73.19;100066.66;4959603;28;20105;-95
2023/09/09 01:07:53;;;;;;;1.17;0.75;;;;;;;20.12;73.00;100076.91;4956950;28;20493;-96
2023/09/09 01:10:19;;;;;;;5.68;2.42;;;;;;;19.85;74.30;100045.19;4959920;28;20038;-95
2023/09/09 01:12:45;;;;;;;1.05;0.95;;;;;;;19.85;74.07;100051.41;4964638;28;20129;-95
2023/09/09 01:15:11;;;;;;;2.47;1.30;;;;;;;19.86;74.58;100046.91;4961650;28;20506;-96
2023/09/09 01:17:42;;;;;;;2.42;0.93;;;;;;;19.88;74.41;100045.03;4979672;28;20090;-96
2023/09/09 01:20:17;;;;;;;2.25;1.42;;;;;;;19.87;74.19;100032.59;4978073;28;20030;-96
2023/09/09 01:22:44;;;;;;;2.90;2.03;;;;;;;19.70;74.31;100016.44;4957707;28;20034;-96
2023/09/09 01:25:18;;;;;;;5.25;2.08;;;;;;;19.97;73.70;100041.03;4977203;28;20038;-91
2023/09/09 01:27:43;;;;;;;1.00;0.82;;;;;;;19.99;73.35;100050.75;4961592;28;20133;-96
2023/09/09 01:30:11;;;;;;;4.15;1.60;;;;;;;20.13;73.86;100074.16;4956890;28;20039;-95
2023/09/09 01:32:57;;;;;;;1.95;1.17;;;;;;;19.96;74.72;100068.78;4964689;28;20048;-95
2023/09/09 01:35:23;;;;;;;1.48;1.38;;;;;;;19.77;76.00;100056.25;4979157;28;20483;-96
2023/09/09 01:37:51;;;;;;;2.63;1.48;;;;;;;19.85;75.77;100062.09;4961109;28;20133;-96
2023/09/09 01:40:17;;;;;;;2.08;1.33;;;;;;;19.73;75.78;100018.97;5010876;28;20042;-95
2023/09/09 01:42:47;;;;;;;1.45;1.30;;;;;;;20.04;75.56;100063.91;4962600;28;20448;-93
2023/09/09 01:45:12;;;;;;;1.73;1.33;;;;;;;20.05;75.70;100065.66;4979231;28;20030;-96
2023/09/09 01:47:38;;;;;;;1.50;1.27;;;;;;;19.80;75.18;100037.38;4949404;28;20132;-94
2023/09/09 01:50:04;;;;;;;3.80;1.73;;;;;;;19.76;75.56;100034.91;4941686;28;20042;-94
2023/09/09 01:52:31;;;;;;;9.43;1.73;;;;;;;19.77;75.84;100056.25;4954371;28;20030;-94
2023/09/09 01:54:56;;;;;;;5.22;2.40;;;;;;;19.56;75.79;100036.69;4955773;28;20509;-92
2023/09/09 01:57:26;;;;;;;1.90;1.63;;;;;;;19.60;75.50;100040.09;4954335;28;20035;-93
2023/09/09 01:59:53;;;;;;;2.38;1.60;;;;;;;19.40;75.56;100020.50;4986905;28;20049;-94
2023/09/09 02:02:20;;;;;;;2.20;1.50;;;;;;;19.70;75.42;100052.09;4974423;28;20072;-94
2023/09/09 02:04:47;;;;;;;4.13;1.83;;;;;;;19.49;76.74;100054.84;4974128;28;20030;-93
2023/09/09 02:07:12;;;;;;;2.25;1.50;;;;;;;19.81;75.56;100065.00;4940180;29;20441;-93
2023/09/09 02:09:38;;;;;;;1.63;1.52;;;;;;;19.60;75.29;100007.97;4908088;29;20040;-92
2023/09/09 02:12:04;;;;;;;4.15;1.60;;;;;;;19.64;75.67;100039.88;4911895;29;20044;-90
2023/09/09 02:14:30;;;;;;;4.82;1.77;;;;;;;19.63;76.18;100046.19;4912245;29;20351;-92
2023/09/09 02:16:56;;;;;;;3.38;2.47;;;;;;;19.49;76.27;100020.06;4911652;29;20131;-92
2023/09/09 02:19:21;;;;;;;2.55;1.48;;;;;;;19.58;76.15;100036.63;4899323;29;20124;-91
2023/09/09 02:21:47;;;;;;;1.75;1.52;;;;;;;19.51;75.33;100036.06;4895860;29;20067;-91
2023/09/09 02:24:12;;;;;;;3.30;2.25;;;;;;;19.51;75.78;100028.03;4914002;29;20119;-92
2023/09/09 02:26:40;;;;;;;3.35;2.03;;;;;;;19.37;76.32;100022.41;4916184;29;20139;-91
2023/09/09 02:29:05;;;;;;;5.63;1.77;;;;;;;19.68;75.87;100056.66;4929092;29;20078;-90
2023/09/09 02:31:31;;;;;;;4.68;2.80;;;;;;;19.74;74.79;100042.09;4901828;29;20157;-92
2023/09/09 02:33:56;;;;;;;7.80;1.70;;;;;;;19.81;74.72;100063.19;4896948;29;20209;-91
2023/09/09 02:36:22;;;;;;;1.40;1.20;;;;;;;19.59;74.77;100035.69;4897139;29;20039;-94
2023/09/09 02:38:48;;;;;;;4.82;3.25;;;;;;;19.35;75.22;100013.63;4946332;28;20502;-93
2023/09/09 02:41:13;;;;;;;1.70;1.60;;;;;;;19.60;74.62;100045.44;4956333;28;20062;-93
2023/09/09 02:43:41;;;;;;;2.65;1.38;;;;;;;19.58;74.96;100052.66;4954282;28;20121;-94
2023/09/09 02:46:11;;;;;;;2.03;1.42;;;;;;;19.40;74.63;100039.22;4971916;28;20517;-96
2023/09/09 02:48:36;;;;;;;2.97;2.20;;;;;;;19.32;75.00;100052.94;4959463;28;20038;-96
2023/09/09 02:51:02;;;;;;;3.50;1.98;;;;;;;19.31;75.04;100069.06;4969516;28;20493;-96
2023/09/09 02:53:27;;;;;;;2.95;1.92;;;;;;;19.39;74.31;100055.34;4954905;28;20041;-95
2023/09/09 02:56:06;;;;;;;1.55;1.33;;;;;;;19.36;74.50;100051.00;4958819;28;20066;-96
2023/09/09 02:58:32;;;;;;;1.70;1.15;;;;;;;19.09;74.66;100029.91;4964642;28;20038;-94
2023/09/09 03:01:06;;;;;;;1.40;1.23;;;;;;;19.17;74.70;100052.75;4963557;28;20044;-96
2023/09/09 03:04:03;;;;;;;0.88;0.88;;;;;;;19.07;74.75;100055.84;4969085;28;20481;-96
2023/09/09 03:06:47;;;;;;;1.48;1.15;;;;;;;19.11;74.49;100054.78;4978032;28;20102;-96
2023/09/09 03:09:16;;;;;;;1.58;1.13;;;;;;;18.83;74.24;100006.09;4957242;28;20031;-96
2023/09/09 03:11:42;;;;;;;1.08;0.75;;;;;;;18.65;74.66;100011.31;4941421;28;20043;-92
2023/09/09 03:14:09;;;;;;;2.15;1.70;;;;;;;18.88;75.03;100037.06;4960931;28;20039;-95
2023/09/09 03:16:36;;;;;;;3.75;2.08;;;;;;;19.04;73.85;100047.94;4942894;28;20038;-95
2023/09/09 03:19:03;;;;;;;1.10;0.85;;;;;;;18.71;74.61;100020.88;4957343;28;20051;-94
2023/09/09 03:21:29;;;;;;;1.58;1.13;;;;;;;18.89;74.07;100036.16;4941129;28;20117;-94
2023/09/09 03:23:54;;;;;;;2.58;2.22;;;;;;;18.74;73.91;100010.06;4958652;28;20121;-95
2023/09/09 03:26:22;;;;;;;0.93;0.90;;;;;;;18.71;74.39;100016.41;4946178;28;20040;-96
2023/09/09 03:28:49;;;;;;;4.53;2.20;;;;;;;18.57;76.00;100040.19;4977138;28;20420;-93
2023/09/09 03:31:15;;;;;;;2.55;1.45;;;;;;;18.36;76.35;100024.13;4960774;28;20122;-94
2023/09/09 03:33:42;;;;;;;1.65;1.10;;;;;;;18.55;76.12;100036.69;4959082;28;20146;-94
2023/09/09 03:36:07;;;;;;;4.20;1.48;;;;;;;18.57;75.80;100029.50;4992321;28;20042;-89
2023/09/09 03:38:34;;;;;;;1.50;1.40;;;;;;;18.45;74.73;100003.31;4975496;28;20096;-94
2023/09/09 03:41:00;;;;;;;6.60;1.65;;;;;;;18.57;74.55;100018.81;4870897;28;3081053;-96
2023/09/09 03:43:26;;;;;;;2.13;1.92;;;;;;;18.50;74.04;99999.50;4979754;28;20054;-96
2023/09/09 03:45:56;;;;;;;1.65;1.23;;;;;;;18.48;74.69;100012.06;4960342;28;20106;-95
2023/09/09 03:48:22;;;;;;;5.70;1.73;;;;;;;18.61;74.78;100048.00;4977088;28;20133;-95
2023/09/09 03:50:48;;;;;;;1.50;1.30;;;;;;;18.63;74.90;100049.72;4972445;28;20058;-96
2023/09/09 03:53:14;;;;;;;1.55;1.45;;;;;;;18.46;75.39;100019.28;4957117;28;20096;-95
2023/09/09 03:55:42;;;;;;;2.40;1.83;;;;;;;18.53;75.28;100036.75;4965156;28;20038;-96
2023/09/09 03:58:08;;;;;;;1.90;1.25;;;;;;;18.51;75.15;100035.97;4994265;28;20042;-94
2023/09/09 04:00:36;;;;;;;3.03;2.10;;;;;;;18.31;75.82;100035.94;4960477;28;20038;-95
2023/09/09 04:03:03;;;;;;;2.80;1.85;;;;;;;18.35;75.60;100017.06;4975706;28;20125;-95
2023/09/09 04:05:29;;;;;;;2.72;2.10;;;;;;;18.47;75.10;100033.47;4974675;28;20108;-89
2023/09/09 04:07:58;;;;;;;2.60;1.35;;;;;;;18.23;75.86;100021.09;4959418;28;20039;-92
2023/09/09 04:10:23;;;;;;;2.20;1.98;;;;;;;18.33;76.00;100037.59;4975109;28;20037;-94
2023/09/09 04:12:50;;;;;;;1.27;0.90;;;;;;;18.09;75.47;99986.09;4972526;28;20042;-92
2023/09/09 04:15:17;;;;;;;2.72;1.65;;;;;;;18.32;75.39;100017.19;4991246;28;20034;-93
2023/09/09 04:17:44;;;;;;;2.42;1.90;;;;;;;18.24;75.66;100011.28;4975237;28;20128;-94
2023/09/09 04:20:10;;;;;;;2.85;1.45;;;;;;;18.19;75.66;100005.25;4975987;28;20524;-93
2023/09/09 04:22:35;;;;;;;1.80;0.90;;;;;;;18.28;75.51;100041.41;4975161;28;20026;-93
2023/09/09 04:25:01;;;;;;;2.58;1.70;;;;;;;18.12;75.41;100020.69;4992460;28;20090;-92
2023/09/09 04:27:26;;;;;;;2.05;1.38;;;;;;;18.25;75.63;100056.59;4975039;28;20042;-94
2023/09/09 04:29:52;;;;;;;0.93;0.80;;;;;;;18.35;74.81;100043.75;4971207;28;20085;-92
2023/09/09 04:32:17;;;;;;;3.83;1.95;;;;;;;18.34;75.18;100062.50;4975383;28;20083;-93
2023/09/09 04:34:44;;;;;;;0.95;0.88;;;;;;;18.09;76.03;100026.16;4963222;28;20520;-90
2023/09/09 04:37:09;;;;;;;2.30;1.27;;;;;;;17.82;76.78;99983.56;4987363;28;20606;-90
2023/09/09 04:39:35;;;;;;;1.83;1.27;;;;;;;18.11;76.38;100012.72;4987985;28;20063;-89
2023/09/09 04:42:00;;;;;;;2.20;1.83;;;;;;;18.32;76.70;100030.53;4972094;28;20035;-90
2023/09/09 04:44:26;;;;;;;2.35;2.15;;;;;;;18.40;77.76;100056.91;4971660;28;20035;-88
2023/09/09 04:46:51;;;;;;;2.50;1.83;;;;;;;18.22;78.14;100005.13;4972534;28;20507;-90
2023/09/09 04:49:17;;;;;;;1.55;1.33;;;;;;;18.54;78.47;100069.69;4972398;28;20023;-92
2023/09/09 04:51:43;;;;;;;2.05;1.85;;;;;;;18.39;78.54;100013.31;4988931;28;20027;-89
2023/09/09 04:54:09;;;;;;;1.23;1.08;;;;;;;18.55;79.14;100047.38;4970794;28;20527;-89
2023/09/09 04:56:35;;;;;;;2.08;1.23;;;;;;;18.42;79.74;100025.66;4973672;28;20082;-89
2023/09/09 04:59:01;;;;;;;5.38;2.67;;;;;;;18.71;79.36;100048.47;4982408;28;20030;-90
2023/09/09 05:01:26;;;;;;;1.63;1.52;;;;;;;18.87;79.41;100051.38;4991687;28;20049;-87
2023/09/09 05:03:52;;;;;;;2.67;1.15;;;;;;;19.03;79.06;100058.72;4974924;28;20490;-87
2023/09/09 05:06:17;;;;;;;9.20;2.72;;;;;;;19.00;79.10;100040.13;4977541;28;20421;-88
2023/09/09 05:08:43;;;;;;;2.67;1.30;;;;;;;18.91;79.14;100017.38;4974444;28;20049;-89
2023/09/09 05:11:10;;;;;;;5.95;2.05;;;;;;;19.14;79.83;100041.25;4973750;28;20062;-89
2023/09/09 05:13:35;;;;;;;2.35;1.27;;;;;;;19.05;80.36;100028.31;4978895;28;20054;-88
2023/09/09 05:16:02;;;;;;;1.98;1.67;;;;;;;19.13;80.08;100023.47;4973014;28;20049;-94
2023/09/09 05:18:28;;;;;;;3.42;2.10;;;;;;;19.12;80.08;100011.06;4943175;28;20037;-91
2023/09/09 05:20:54;;;;;;;1.83;1.60;;;;;;;19.34;79.58;100012.75;4982358;28;22225;-93
2023/09/09 05:23:19;;;;;;;2.03;1.80;;;;;;;19.53;79.30;100015.44;4954027;28;20489;-90
2023/09/09 05:25:45;;;;;;;2.28;1.50;;;;;;;19.80;79.36;100042.75;4976151;28;20468;-93
2023/09/09 05:28:10;;;;;;;3.15;1.98;;;;;;;20.01;78.43;100053.34;4971645;28;20034;-90
2023/09/09 05:30:40;;;;;;;4.50;3.22;;;;;;;20.18;78.28;100055.19;4971167;28;20081;-85
2023/09/09 05:33:05;;;;;;;2.35;2.15;;;;;;;20.30;76.55;100037.66;4973268;28;20033;-90
2023/09/09 05:35:31;;;;;;;2.75;2.15;;;;;;;20.11;77.29;99993.06;4967080;28;20061;-88
2023/09/09 05:37:56;;;;;;;3.50;1.83;;;;;;;20.58;76.38;100043.34;4988666;28;20038;-93
2023/09/09 05:40:22;;;;;;;6.47;3.08;;;;;;;20.57;75.70;100028.22;4973303;28;20543;-88
2023/09/09 05:42:48;;;;;;;4.72;2.08;;;;;;;20.86;75.57;100044.63;4973086;28;20185;-89
2023/09/09 05:45:14;;;;;;;3.85;2.72;;;;;;;20.85;74.94;100031.31;4975282;28;20556;-89
2023/09/09 05:47:41;;;;;;;1.77;1.20;;;;;;;21.20;74.04;100048.22;4974358;28;20031;-89
2023/09/09 05:50:07;;;;;;;5.78;2.13;;;;;;;21.34;72.70;100033.19;4978374;28;20064;-92
2023/09/09 05:52:34;;;;;;;1.48;1.05;;;;;;;21.27;72.01;100036.22;4988927;28;20038;-91
2023/09/09 05:55:01;;;;;;;3.17;2.35;;;;;;;21.40;72.23;100025.66;4959730;28;20524;-91
2023/09/09 05:57:26;;;;;;;2.72;2.22;;;;;;;21.61;71.57;100004.88;4959738;28;20053;-92
2023/09/09 05:59:52;;;;;;;8.65;2.92;;;;;;;22.09;70.97;100050.53;4972938;28;20034;-92
2023/09/09 06:02:17;;;;;;;4.13;2.22;;;;;;;22.20;70.28;100009.59;4981596;28;20453;-90
2023/09/09 06:04:43;;;;;;;9.50;2.80;;;;;;;22.39;69.09;100038.97;4992258;28;20125;-90
2023/09/09 06:07:09;;;;;;;4.15;2.83;;;;;;;22.19;67.63;100010.53;4988175;28;20066;-89
2023/09/09 06:09:34;;;;;;;1.77;1.60;;;;;;;22.29;67.86;100030.56;4970110;28;20061;-91
2023/09/09 06:12:01;;;;;;;3.13;2.00;;;;;;;22.29;67.33;100017.13;4974809;28;20030;-90
2023/09/09 06:14:26;;;;;;;2.92;1.92;;;;;;;22.91;66.42;100044.88;4975630;28;20576;-90
2023/09/09 06:16:52;;;;;;;2.95;2.20;;;;;;;23.27;65.64;100049.84;4978479;28;20034;-90
2023/09/09 06:19:17;;;;;;;2.50;1.35;;;;;;;23.62;64.92;100043.19;4986010;28;20382;-90
2023/09/09 06:21:43;;;;;;;3.35;2.05;;;;;;;23.72;63.99;100053.28;4982210;28;20042;-92
2023/09/09 06:24:08;;;;;;;7.97;2.40;;;;;;;23.64;63.69;100046.69;4982543;28;20041;-89
2023/09/09 06:26:34;;;;;;;4.00;2.45;;;;;;;23.22;63.69;99972.09;4979495;28;20523;-89
2023/09/09 06:29:00;;;;;;;5.70;2.17;;;;;;;24.13;62.81;100057.00;4988399;28;20042;-89
2023/09/09 06:31:26;;;;;;;1.58;1.48;;;;;;;24.22;62.35;100045.59;4973022;28;20041;-88
2023/09/09 06:33:52;;;;;;;2.67;1.30;;;;;;;24.29;61.76;100057.69;4968133;28;20038;-88
2023/09/09 06:36:20;;;;;;;2.55;1.38;;;;;;;24.30;60.93;100051.34;4992210;28;20022;-85
2023/09/09 06:38:46;;;;;;;6.97;1.63;;;;;;;24.36;61.29;100038.41;4993421;28;20436;-91
2023/09/09 06:41:13;;;;;;;1.60;1.10;;;;;;;24.73;60.13;100019.75;4993593;28;20046;-88
2023/09/09 06:43:39;;;;;;;9.68;1.70;;;;;;;25.26;59.45;100050.25;4973702;28;20795;-88
2023/09/09 06:46:04;;;;;;;2.65;1.67;;;;;;;25.16;58.74;100033.84;4975434;28;20030;-88
2023/09/09 06:48:30;;;;;;;1.95;1.20;;;;;;;25.40;58.57;100052.00;4991003;28;20406;-86
2023/09/09 06:50:56;;;;;;;2.15;1.30;;;;;;;25.87;56.68;100057.63;4993468;28;20500;-88
2023/09/09 06:53:22;;;;;;;2.08;1.73;;;;;;;26.17;57.05;100048.28;4991678;28;20464;-93
2023/09/09 06:55:48;;;;;;;3.13;1.17;;;;;;;26.35;54.81;100014.41;4965288;28;20042;-85
2023/09/09 06:58:14;;;;;;;2.10;0.93;;;;;;;26.54;53.87;100029.22;4958667;28;20042;-89
2023/09/09 07:00:40;;;;;;;3.97;1.92;;;;;;;26.40;53.41;100024.88;4981214;28;20022;-90
2023/09/09 07:03:07;;;;;;;10.88;1.38;;;;;;;26.41;53.42;100062.63;4992828;28;20127;-94
2023/09/09 07:05:33;;;;;;;1.15;1.05;;;;;;;26.81;51.62;100037.09;4982723;28;20065;-89
2023/09/09 07:07:58;;;;;;;2.28;0.73;;;;;;;26.82;50.60;100033.44;4990273;28;20026;-89
2023/09/09 07:10:24;;;;;;;1.83;0.98;;;;;;;26.70;50.54;100039.78;4978677;28;20172;-90
2023/09/09 07:12:49;;;;;;;2.33;1.90;;;;;;;26.42;52.25;100042.72;4982073;28;20508;-89
2023/09/09 07:15:16;;;;;;;1.48;1.27;;;;;;;26.48;52.50;100027.88;4974274;28;20033;-90
2023/09/09 07:17:43;;;;;;;2.33;2.13;;;;;;;26.68;52.43;100049.84;4974954;28;20037;-90
2023/09/09 07:20:09;;;;;;;1.15;0.93;;;;;;;27.06;51.96;100025.22;4978658;28;20114;-90
2023/09/09 07:22:35;;;;;;;1.55;0.98;;;;;;;27.12;50.00;100034.72;4981824;28;20442;-91
2023/09/09 07:25:00;;;;;;;4.00;2.05;;;;;;;27.21;49.16;100016.88;4986038;28;20052;-92
2023/09/09 07:27:26;;;;;;;1.75;1.27;;;;;;;27.36;48.41;100034.66;4979179;28;20483;-91
2023/09/09 07:29:51;;;;;;;3.75;2.05;;;;;;;27.75;47.50;100036.97;4985189;28;20030;-91
2023/09/09 07:32:17;;;;;;;1.08;0.80;;;;;;;27.79;46.99;100044.72;4986258;28;20039;-91
2023/09/09 07:34:42;;;;;;;1.50;0.98;;;;;;;27.63;45.81;100025.28;4982824;28;20510;-92
2023/09/09 07:37:07;;;;;;;1.77;1.10;;;;;;;27.38;48.10;100038.09;4974218;28;20035;-87
2023/09/09 07:39:44;;;;;;;2.97;1.60;;;;;;;27.47;47.13;100041.91;4977375;28;20042;-90
2023/09/09 07:42:10;;;;;;;2.10;0.85;;;;;;;27.39;46.57;100017.25;4973809;28;20517;-90
2023/09/09 07:44:36;;;;;;;1.05;0.77;;;;;;;27.56;46.60;100002.38;4983241;28;20109;-91
2023/09/09 07:47:06;;;;;;;1.00;0.90;;;;;;;27.50;45.45;100020.00;4990392;28;20038;-90
2023/09/09 07:49:32;;;;;;;1.88;1.00;;;;;;;27.47;45.80;100029.22;4987833;28;20022;-89
2023/09/09 07:51:57;;;;;;;2.42;1.77;;;;;;;27.20;46.39;100012.44;4982330;28;20030;-87
2023/09/09 07:54:23;;;;;;;2.83;0.90;;;;;;;27.43;44.50;100029.59;4979624;28;20110;-91
2023/09/09 07:56:48;;;;;;;2.03;1.23;;;;;;;27.65;45.25;100021.47;4955609;28;20101;-91
2023/09/09 07:59:14;;;;;;;1.38;0.60;;;;;;;27.63;44.09;100015.28;4957329;28;20070;-93
2023/09/09 08:01:39;;;;;;;2.92;1.15;;;;;;;27.62;43.06;100001.88;4992598;28;20031;-91
2023/09/09 08:04:05;;;;;;;1.60;1.02;;;;;;;27.88;42.06;100056.63;4970286;28;20050;-92
2023/09/09 08:06:30;;;;;;;1.77;1.48;;;;;;;27.78;42.18;100034.84;4960495;28;20039;-90
2023/09/09 08:08:55;;;;;;;2.83;1.35;;;;;;;28.17;42.43;100031.72;4976029;28;20089;-90
2023/09/09 08:11:23;;;;;;;1.05;0.75;;;;;;;28.42;41.45;100037.78;4976042;28;20050;-89
2023/09/09 08:13:48;;;;;;;2.10;1.23;;;;;;;28.66;39.28;100027.59;4992090;28;20571;-91
2023/09/09 08:16:14;;;;;;;1.35;1.10;;;;;;;28.99;39.55;100044.66;4990394;28;20030;-86
2023/09/09 08:18:39;;;;;;;1.88;1.15;;;;;;;29.07;39.51;100047.59;4984424;28;20038;-89
2023/09/09 08:21:05;;;;;;;3.35;1.30;;;;;;;29.01;38.23;100040.00;4955995;28;20575;-92
2023/09/09 08:23:32;;;;;;;0.65;0.65;;;;;;;28.93;37.83;100048.81;4972590;28;20508;-91
2023/09/09 08:25:58;;;;;;;1.20;0.80;;;;;;;28.96;37.38;100001.50;4955490;28;20141;-93
2023/09/09 08:28:23;;;;;;;2.40;1.38;;;;;;;28.90;38.42;100004.75;4955445;28;20477;-92
2023/09/09 08:30:49;;;;;;;1.10;0.93;;;;;;;28.90;36.45;100023.75;4972872;28;20062;-93
2023/09/09 08:33:14;;;;;;;8.18;4.90;;;;;;;28.82;35.29;100026.28;4955821;28;20040;-91
2023/09/09 08:35:40;;;;;;;3.70;1.90;;;;;;;28.76;30.81;100030.38;4955211;28;20151;-89
2023/09/09 08:38:05;;;;;;;1.65;0.65;;;;;;;28.48;31.13;99992.00;4971752;28;20126;-88
2023/09/09 08:40:43;;;;;;;1.45;1.00;;;;;;;28.76;32.01;100022.22;4972395;28;20046;-88
2023/09/09 08:43:19;;;;;;;1.95;1.08;;;;;;;28.78;30.27;100011.25;4972612;28;20374;-90
2023/09/09 08:46:02;;;;;;;1.52;1.20;;;;;;;29.00;31.07;100029.25;4955423;28;20038;-93
2023/09/09 08:48:33;;;;;;;1.40;0.82;;;;;;;28.76;32.06;99997.81;4972377;28;20037;-93
2023/09/09 08:51:03;;;;;;;0.47;0.40;;;;;;;28.96;31.08;99996.06;4954750;28;20027;-91
2023/09/09 08:53:31;;;;;;;3.03;0.85;;;;;;;29.40;29.93;99994.03;4953804;28;20034;-89
2023/09/09 08:55:58;;;;;;;0.65;0.60;;;;;;;29.15;29.84;100010.75;4989667;28;20164;-93
2023/09/09 08:58:25;;;;;;;0.80;0.25;;;;;;;29.04;29.76;99984.53;4957725;28;20038;-91
2023/09/09 09:00:50;;;;;;;1.63;0.70;;;;;;;28.65;30.34;100006.03;4954977;28;20049;-91
2023/09/09 09:03:17;;;;;;;1.38;1.10;;;;;;;28.67;32.96;100004.91;4954051;28;20035;-90
2023/09/09 09:05:44;;;;;;;1.27;0.93;;;;;;;28.46;30.55;99993.16;4954116;28;20414;-91
2023/09/09 09:08:10;;;;;;;1.38;1.23;;;;;;;28.61;30.78;99986.44;4980278;28;20046;-91
2023/09/09 09:10:37;;;;;;;1.02;0.93;;;;;;;28.31;30.84;100027.84;4975441;28;20027;-92
2023/09/09 09:13:04;;;;;;;0.57;0.50;;;;;;;27.40;33.92;99962.97;4968787;28;20657;-91
2023/09/09 09:15:38;;;;;;;1.38;0.63;;;;;;;27.59;33.77;99980.44;4972180;28;20030;-91
2023/09/09 09:18:04;;;;;;;4.10;1.50;;;;;;;27.94;32.39;100028.19;4953844;28;20035;-91
2023/09/09 09:20:33;;;;;;;0.47;0.30;;;;;;;27.58;32.15;100009.38;4970813;28;20134;-95
2023/09/09 09:23:05;;;;;;;4.68;1.13;;;;;;;27.41;32.32;100010.75;4938904;28;20035;-89
2023/09/09 09:25:44;;;;;;;1.95;1.02;;;;;;;27.43;32.71;99978.97;4969073;28;20070;-88
2023/09/09 09:28:15;;;;;;;3.05;2.22;;;;;;;27.15;32.05;99966.78;4971416;28;20137;-92
2023/09/09 09:30:41;;;;;;;6.05;3.00;;;;;;;26.83;31.43;99972.91;4952926;28;20035;-92
2023/09/09 09:33:07;;;;;;;0.57;0.50;;;;;;;27.21;31.66;100001.50;4970834;28;20041;-92
2023/09/09 09:35:36;;;;;;;3.28;0.65;;;;;;;27.41;31.58;99997.22;4984796;28;20416;-89
2023/09/09 09:38:09;;;;;;;1.52;0.52;;;;;;;27.49;31.76;99985.75;4969783;28;20034;-92
2023/09/09 09:40:36;;;;;;;2.13;0.80;;;;;;;28.07;31.32;100001.81;4960013;28;20046;-92
2023/09/09 09:43:02;;;;;;;5.40;1.48;;;;;;;28.16;30.02;100002.88;4968609;28;20042;-89
2023/09/09 09:45:30;;;;;;;3.10;2.38;;;;;;;27.79;30.72;99965.25;4985140;28;20026;-91
2023/09/09 09:47:58;;;;;;;0.60;0.45;;;;;;;28.02;31.12;99974.22;4966954;28;20050;-92
2023/09/09 09:50:30;;;;;;;5.28;0.60;;;;;;;28.07;30.14;99968.41;4965044;28;20039;-93
2023/09/09 09:53:06;;;;;;;1.42;0.68;;;;;;;28.17;29.39;99972.91;4962682;28;20100;-92
2023/09/09 09:55:33;;;;;;;0.98;0.77;;;;;;;28.21;29.95;99978.97;4960989;28;20162;-92
2023/09/09 09:58:00;;;;;;;0.70;0.35;;;;;;;28.00;29.89;99982.47;4960100;28;20490;-89
2023/09/09 10:00:27;;;;;;;1.17;0.95;;;;;;;27.99;27.95;99975.34;4963071;28;20089;-92
2023/09/09 10:02:57;;;;;;;0.70;0.68;;;;;;;27.76;26.58;99993.47;4967777;28;20039;-91
2023/09/09 10:05:29;;;;;;;0.20;0.20;;;;;;;27.93;26.31;99970.41;4970079;28;20042;-88
2023/09/09 10:08:16;;;;;;;6.32;0.40;;;;;;;27.76;27.07;99988.06;4970295;28;20031;-91
2023/09/09 10:10:56;;;;;;;1.45;0.70;;;;;;;27.84;26.33;99974.72;4967614;28;20053;-87
2023/09/09 10:13:40;;;;;;;0.77;0.70;;;;;;;27.78;27.09;99987.94;4982765;28;20501;-89
2023/09/09 10:16:06;;;;;;;1.20;0.95;;;;;;;27.93;27.74;99985.78;4978797;28;20062;-93
2023/09/09 10:18:34;;;;;;;0.50;0.38;;;;;;;27.79;27.94;99966.13;4971896;28;20058;-92
2023/09/09 10:21:01;;;;;;;0.25;0.10;;;;;;;28.10;28.33;99963.59;4985705;28;20046;-89
2023/09/09 10:23:29;;;;;;;0.30;0.30;;;;;;;28.29;26.95;99970.19;4960512;28;20030;-91
2023/09/09 10:25:56;;;;;;;0.32;0.30;;;;;;;28.07;26.46;99934.03;4964325;28;20472;-86
2023/09/09 10:28:24;;;;;;;2.58;1.80;;;;;;;27.82;26.56;99959.56;4983704;28;20033;-89
2023/09/09 10:30:50;;;;;;;0.80;0.70;;;;;;;27.93;26.92;99959.56;4962014;28;20165;-87
2023/09/09 10:33:18;;;;;;;4.45;1.38;;;;;;;27.45;29.01;99921.97;4980382;28;20054;-89
2023/09/09 10:35:47;;;;;;;0.75;0.75;;;;;;;27.51;27.33;99884.44;4965772;28;20509;-93
2023/09/09 10:38:14;;;;;;;0.55;0.40;;;;;;;27.96;27.81;99925.91;4971013;28;20060;-88
2023/09/09 10:40:40;;;;;;;3.00;2.45;;;;;;;28.19;26.05;99940.25;4974953;28;20429;-90
2023/09/09 10:43:06;;;;;;;0.63;0.60;;;;;;;27.95;25.62;99900.69;4975460;28;20035;-93
2023/09/09 10:45:39;;;;;;;0.85;0.52;;;;;;;28.16;24.12;99929.66;4973510;28;20062;-88
2023/09/09 10:48:07;;;;;;;0.32;0.32;;;;;;;27.95;25.22;99897.09;4980814;28;20043;-89
2023/09/09 10:51:04;;;;;;;2.40;0.95;;;;;;;28.25;24.64;99915.31;4980106;28;20061;-89
2023/09/09 10:53:30;;;;;;;2.85;0.80;;;;;;;28.11;24.48;99929.19;4976871;28;20069;-92
2023/09/09 10:55:59;;;;;;;3.20;2.63;;;;;;;28.24;24.99;99905.47;4979131;28;20477;-88
2023/09/09 10:58:33;;;;;;;1.70;1.02;;;;;;;28.35;25.39;99893.72;4965635;28;20417;-91
2023/09/09 11:00:59;;;;;;;6.97;2.38;;;;;;;28.70;23.63;99889.78;4975613;28;20030;-91
2023/09/09 11:03:34;;;;;;;1.73;1.58;;;;;;;28.97;23.71;99923.66;4980031;28;20048;-96
2023/09/09 11:06:05;;;;;;;0.60;0.60;;;;;;;28.64;25.46;99866.78;4963514;28;20038;-92
2023/09/09 11:08:42;;;;;;;16.10;10.57;;;;;;;28.32;24.24;99907.53;4961316;28;20616;-94
2023/09/09 11:11:17;;;;;;;2.75;1.00;;;;;;;28.19;23.32;99886.00;4962615;28;20497;-93
2023/09/09 11:13:48;;;;;;;4.97;2.05;;;;;;;27.97;24.33;99895.13;4961331;28;20034;-95
2023/09/09 11:16:36;;;;;;;1.20;0.90;;;;;;;28.42;24.59;99910.31;4961432;28;20128;-96
2023/09/09 11:19:10;;;;;;;8.73;1.48;;;;;;;28.52;25.19;99908.53;4963896;28;20039;-91
2023/09/09 11:21:46;;;;;;;1.47;0.97;;;;;;;28.34;23.22;99878.41;4981824;28;20442;-96
2023/09/09 11:24:14;;;;;;;1.38;1.00;;;;;;;28.16;23.86;99865.47;4967304;28;20062;-96
2023/09/09 11:26:43;;;;;;;1.00;0.75;;;;;;;28.14;24.17;99889.13;4982596;28;20117;-91
2023/09/09 11:29:10;;;;;;;0.73;0.70;;;;;;;28.17;23.38;99850.88;4969242;28;20053;-95